sensor_id;sensor_type;location;lat;lon;timestamp;P1;durP1;ratioP1;P2;durP2;ratioP2
25567;SDS011;13455;51.480;7.594;2023-04-12T00:00:22;7.90;;;1.98;;
25567;SDS011;13455;51.480;7.594;2023-04-12T00:02:48;7.55;;;1.70;;
25567;SDS011;13455;51.480;7.594;2023-04-12T00:05:18;7.35;;;1.70;;
25567;SDS011;13455;51.480;7.594;2023-04-12T00:07:47;8.27;;;1.80;;
25567;SDS011;13455;51.480;7.594;2023-04-12T00:10:13;6.95;;;1.42;;
25567;SDS011;13455;51.480;7.594;2023-04-12T00:12:40;6.82;;;1.80;;
25567;SDS011;13455;51.480;7.594;2023-04-12T00:15:05;9.23;;;1.70;;
25567;SDS011;13455;51.480;7.594;2023-04-12T00:17:32;8.23;;;1.73;;
25567;SDS011;13455;51.480;7.594;2023-04-12T00:19:57;8.90;;;1.90;;
25567;SDS011;13455;51.480;7.594;2023-04-12T00:22:23;7.00;;;1.70;;
25567;SDS011;13455;51.480;7.594;2023-04-12T00:24:50;6.47;;;1.70;;
25567;SDS011;13455;51.480;7.594;2023-04-12T00:27:16;7.57;;;1.77;;
25567;SDS011;13455;51.480;7.594;2023-04-12T00:29:42;7.47;;;2.00;;
25567;SDS011;13455;51.480;7.594;2023-04-12T00:32:07;6.80;;;1.90;;
25567;SDS011;13455;51.480;7.594;2023-04-12T00:34:33;10.87;;;1.70;;
25567;SDS011;13455;51.480;7.594;2023-04-12T00:36:59;8.73;;;1.90;;
25567;SDS011;13455;51.480;7.594;2023-04-12T00:39:25;8.27;;;1.60;;
25567;SDS011;13455;51.480;7.594;2023-04-12T00:41:51;10.95;;;1.73;;
25567;SDS011;13455;51.480;7.594;2023-04-12T00:44:17;7.60;;;1.70;;
25567;SDS011;13455;51.480;7.594;2023-04-12T00:46:43;8.25;;;1.70;;
25567;SDS011;13455;51.480;7.594;2023-04-12T00:49:10;7.97;;;1.83;;
25567;SDS011;13455;51.480;7.594;2023-04-12T00:51:36;9.07;;;1.77;;
25567;SDS011;13455;51.480;7.594;2023-04-12T00:54:03;8.13;;;1.70;;
25567;SDS011;13455;51.480;7.594;2023-04-12T00:56:30;7.82;;;1.60;;
25567;SDS011;13455;51.480;7.594;2023-04-12T00:58:56;8.40;;;1.73;;
25567;SDS011;13455;51.480;7.594;2023-04-12T01:01:22;8.93;;;1.70;;
25567;SDS011;13455;51.480;7.594;2023-04-12T01:03:48;8.63;;;1.70;;
25567;SDS011;13455;51.480;7.594;2023-04-12T01:11:59;7.63;;;1.85;;
25567;SDS011;13455;51.480;7.594;2023-04-12T01:17:12;9.07;;;1.73;;
25567;SDS011;13455;51.480;7.594;2023-04-12T01:19:59;7.70;;;1.88;;
25567;SDS011;13455;51.480;7.594;2023-04-12T01:28:11;10.07;;;1.92;;
25567;SDS011;13455;51.480;7.594;2023-04-12T01:30:40;8.10;;;1.80;;
25567;SDS011;13455;51.480;7.594;2023-04-12T01:33:08;6.80;;;1.80;;
25567;SDS011;13455;51.480;7.594;2023-04-12T01:35:35;8.98;;;1.85;;
25567;SDS011;13455;51.480;7.594;2023-04-12T01:38:02;7.90;;;1.70;;
25567;SDS011;13455;51.480;7.594;2023-04-12T01:40:29;7.05;;;1.60;;
25567;SDS011;13455;51.480;7.594;2023-04-12T01:43:09;7.38;;;1.92;;
25567;SDS011;13455;51.480;7.594;2023-04-12T01:45:36;7.78;;;1.63;;
25567;SDS011;13455;51.480;7.594;2023-04-12T01:48:03;6.63;;;1.70;;
25567;SDS011;13455;51.480;7.594;2023-04-12T01:50:33;7.07;;;1.80;;
25567;SDS011;13455;51.480;7.594;2023-04-12T01:55:43;8.23;;;1.90;;
25567;SDS011;13455;51.480;7.594;2023-04-12T01:58:12;7.82;;;1.40;;
25567;SDS011;13455;51.480;7.594;2023-04-12T02:00:41;5.82;;;1.30;;
25567;SDS011;13455;51.480;7.594;2023-04-12T02:03:08;9.88;;;1.48;;
25567;SDS011;13455;51.480;7.594;2023-04-12T02:05:34;5.65;;;1.50;;
25567;SDS011;13455;51.480;7.594;2023-04-12T02:08:01;5.70;;;1.40;;
25567;SDS011;13455;51.480;7.594;2023-04-12T02:10:28;5.85;;;1.40;;
25567;SDS011;13455;51.480;7.594;2023-04-12T02:12:58;6.75;;;1.60;;
25567;SDS011;13455;51.480;7.594;2023-04-12T02:15:24;6.27;;;1.50;;
25567;SDS011;13455;51.480;7.594;2023-04-12T02:17:51;7.63;;;1.60;;
25567;SDS011;13455;51.480;7.594;2023-04-12T02:20:18;7.83;;;1.57;;
25567;SDS011;13455;51.480;7.594;2023-04-12T02:22:44;5.57;;;1.50;;
25567;SDS011;13455;51.480;7.594;2023-04-12T02:25:10;8.68;;;1.95;;
25567;SDS011;13455;51.480;7.594;2023-04-12T02:27:36;6.18;;;1.60;;
25567;SDS011;13455;51.480;7.594;2023-04-12T02:30:02;7.80;;;1.90;;
25567;SDS011;13455;51.480;7.594;2023-04-12T02:32:29;5.50;;;1.40;;
25567;SDS011;13455;51.480;7.594;2023-04-12T02:34:56;6.15;;;1.70;;
25567;SDS011;13455;51.480;7.594;2023-04-12T02:37:24;7.43;;;1.48;;
25567;SDS011;13455;51.480;7.594;2023-04-12T02:39:51;6.03;;;1.50;;
25567;SDS011;13455;51.480;7.594;2023-04-12T02:42:21;7.93;;;1.50;;
25567;SDS011;13455;51.480;7.594;2023-04-12T02:44:46;5.82;;;1.40;;
25567;SDS011;13455;51.480;7.594;2023-04-12T02:47:13;8.25;;;1.70;;
25567;SDS011;13455;51.480;7.594;2023-04-12T02:49:39;7.57;;;1.83;;
25567;SDS011;13455;51.480;7.594;2023-04-12T02:52:05;5.97;;;1.55;;
25567;SDS011;13455;51.480;7.594;2023-04-12T02:54:31;7.63;;;1.63;;
25567;SDS011;13455;51.480;7.594;2023-04-12T02:56:56;5.63;;;1.63;;
25567;SDS011;13455;51.480;7.594;2023-04-12T02:59:22;6.10;;;1.60;;
25567;SDS011;13455;51.480;7.594;2023-04-12T03:01:49;7.90;;;1.70;;
25567;SDS011;13455;51.480;7.594;2023-04-12T03:04:15;7.20;;;1.55;;
25567;SDS011;13455;51.480;7.594;2023-04-12T03:06:40;5.97;;;1.57;;
25567;SDS011;13455;51.480;7.594;2023-04-12T03:09:16;6.53;;;1.70;;
25567;SDS011;13455;51.480;7.594;2023-04-12T03:11:42;6.73;;;1.67;;
25567;SDS011;13455;51.480;7.594;2023-04-12T03:14:07;4.83;;;1.40;;
25567;SDS011;13455;51.480;7.594;2023-04-12T03:16:33;5.67;;;1.40;;
25567;SDS011;13455;51.480;7.594;2023-04-12T03:18:59;5.47;;;1.30;;
25567;SDS011;13455;51.480;7.594;2023-04-12T03:21:25;5.00;;;1.50;;
25567;SDS011;13455;51.480;7.594;2023-04-12T03:23:52;6.15;;;1.50;;
25567;SDS011;13455;51.480;7.594;2023-04-12T03:26:18;6.90;;;1.33;;
25567;SDS011;13455;51.480;7.594;2023-04-12T03:28:44;6.75;;;1.70;;
25567;SDS011;13455;51.480;7.594;2023-04-12T03:31:11;6.45;;;1.38;;
25567;SDS011;13455;51.480;7.594;2023-04-12T03:33:37;5.78;;;1.40;;
25567;SDS011;13455;51.480;7.594;2023-04-12T03:37:34;4.55;;;1.20;;
25567;SDS011;13455;51.480;7.594;2023-04-12T03:40:00;4.68;;;1.48;;
25567;SDS011;13455;51.480;7.594;2023-04-12T03:42:27;4.15;;;1.20;;
25567;SDS011;13455;51.480;7.594;2023-04-12T03:44:53;4.13;;;1.13;;
25567;SDS011;13455;51.480;7.594;2023-04-12T03:47:19;6.20;;;1.40;;
25567;SDS011;13455;51.480;7.594;2023-04-12T03:49:46;4.35;;;1.50;;
25567;SDS011;13455;51.480;7.594;2023-04-12T03:52:12;4.25;;;1.33;;
25567;SDS011;13455;51.480;7.594;2023-04-12T03:54:39;4.47;;;1.48;;
25567;SDS011;13455;51.480;7.594;2023-04-12T03:57:05;3.97;;;1.40;;
25567;SDS011;13455;51.480;7.594;2023-04-12T03:59:31;4.53;;;1.40;;
25567;SDS011;13455;51.480;7.594;2023-04-12T04:01:57;4.45;;;1.40;;
25567;SDS011;13455;51.480;7.594;2023-04-12T04:04:27;3.72;;;1.38;;
25567;SDS011;13455;51.480;7.594;2023-04-12T04:06:53;4.22;;;1.40;;
25567;SDS011;13455;51.480;7.594;2023-04-12T04:09:19;3.92;;;1.20;;
25567;SDS011;13455;51.480;7.594;2023-04-12T04:11:45;3.80;;;1.10;;
25567;SDS011;13455;51.480;7.594;2023-04-12T04:14:14;3.97;;;1.27;;
25567;SDS011;13455;51.480;7.594;2023-04-12T04:16:40;3.92;;;1.23;;
25567;SDS011;13455;51.480;7.594;2023-04-12T04:19:05;3.60;;;1.10;;
25567;SDS011;13455;51.480;7.594;2023-04-12T04:21:31;2.80;;;1.10;;
25567;SDS011;13455;51.480;7.594;2023-04-12T04:24:00;5.05;;;1.10;;
25567;SDS011;13455;51.480;7.594;2023-04-12T04:26:29;4.15;;;1.20;;
25567;SDS011;13455;51.480;7.594;2023-04-12T04:29:00;4.15;;;1.30;;
25567;SDS011;13455;51.480;7.594;2023-04-12T04:31:27;4.25;;;1.27;;
25567;SDS011;13455;51.480;7.594;2023-04-12T04:34:01;4.53;;;1.30;;
25567;SDS011;13455;51.480;7.594;2023-04-12T04:36:29;3.33;;;1.00;;
25567;SDS011;13455;51.480;7.594;2023-04-12T04:38:59;3.90;;;1.20;;
25567;SDS011;13455;51.480;7.594;2023-04-12T04:41:25;4.57;;;1.30;;
25567;SDS011;13455;51.480;7.594;2023-04-12T04:43:51;4.57;;;1.30;;
25567;SDS011;13455;51.480;7.594;2023-04-12T04:46:18;4.47;;;1.35;;
25567;SDS011;13455;51.480;7.594;2023-04-12T04:48:48;3.38;;;1.20;;
25567;SDS011;13455;51.480;7.594;2023-04-12T04:51:15;3.13;;;1.05;;
25567;SDS011;13455;51.480;7.594;2023-04-12T04:53:42;3.97;;;1.20;;
25567;SDS011;13455;51.480;7.594;2023-04-12T04:56:08;4.57;;;1.00;;
25567;SDS011;13455;51.480;7.594;2023-04-12T04:58:35;4.85;;;1.08;;
25567;SDS011;13455;51.480;7.594;2023-04-12T05:01:01;3.83;;;1.20;;
25567;SDS011;13455;51.480;7.594;2023-04-12T05:03:27;4.25;;;1.08;;
25567;SDS011;13455;51.480;7.594;2023-04-12T05:05:54;3.95;;;1.10;;
25567;SDS011;13455;51.480;7.594;2023-04-12T05:08:20;2.85;;;1.05;;
25567;SDS011;13455;51.480;7.594;2023-04-12T05:10:50;3.30;;;1.00;;
25567;SDS011;13455;51.480;7.594;2023-04-12T05:13:16;3.03;;;0.97;;
25567;SDS011;13455;51.480;7.594;2023-04-12T05:15:43;2.78;;;0.95;;
25567;SDS011;13455;51.480;7.594;2023-04-12T05:18:08;3.13;;;0.95;;
25567;SDS011;13455;51.480;7.594;2023-04-12T05:20:36;3.10;;;0.90;;
25567;SDS011;13455;51.480;7.594;2023-04-12T05:23:02;3.58;;;0.90;;
25567;SDS011;13455;51.480;7.594;2023-04-12T05:25:28;4.30;;;0.90;;
25567;SDS011;13455;51.480;7.594;2023-04-12T05:27:54;2.53;;;0.85;;
25567;SDS011;13455;51.480;7.594;2023-04-12T05:30:19;2.60;;;0.80;;
25567;SDS011;13455;51.480;7.594;2023-04-12T05:32:45;3.47;;;0.93;;
25567;SDS011;13455;51.480;7.594;2023-04-12T05:35:11;2.47;;;0.80;;
25567;SDS011;13455;51.480;7.594;2023-04-12T05:37:37;2.23;;;0.83;;
25567;SDS011;13455;51.480;7.594;2023-04-12T05:40:02;2.80;;;0.77;;
25567;SDS011;13455;51.480;7.594;2023-04-12T05:42:33;2.70;;;0.80;;
25567;SDS011;13455;51.480;7.594;2023-04-12T05:45:01;2.10;;;0.80;;
25567;SDS011;13455;51.480;7.594;2023-04-12T05:47:28;2.88;;;0.80;;
25567;SDS011;13455;51.480;7.594;2023-04-12T05:49:53;2.80;;;0.90;;
25567;SDS011;13455;51.480;7.594;2023-04-12T05:52:19;4.00;;;0.95;;
25567;SDS011;13455;51.480;7.594;2023-04-12T05:54:45;2.47;;;0.70;;
25567;SDS011;13455;51.480;7.594;2023-04-12T05:57:11;2.57;;;0.87;;
25567;SDS011;13455;51.480;7.594;2023-04-12T05:59:37;2.40;;;0.83;;
25567;SDS011;13455;51.480;7.594;2023-04-12T06:02:03;2.67;;;0.80;;
25567;SDS011;13455;51.480;7.594;2023-04-12T06:04:29;2.40;;;0.73;;
25567;SDS011;13455;51.480;7.594;2023-04-12T06:06:56;2.80;;;1.05;;
25567;SDS011;13455;51.480;7.594;2023-04-12T06:09:22;3.05;;;0.95;;
25567;SDS011;13455;51.480;7.594;2023-04-12T06:11:48;2.67;;;0.80;;
25567;SDS011;13455;51.480;7.594;2023-04-12T06:14:14;2.33;;;0.70;;
25567;SDS011;13455;51.480;7.594;2023-04-12T06:16:40;2.97;;;0.90;;
25567;SDS011;13455;51.480;7.594;2023-04-12T06:19:06;1.80;;;0.80;;
25567;SDS011;13455;51.480;7.594;2023-04-12T06:21:31;3.70;;;0.70;;
25567;SDS011;13455;51.480;7.594;2023-04-12T06:23:57;2.03;;;0.80;;
25567;SDS011;13455;51.480;7.594;2023-04-12T06:26:23;2.53;;;0.80;;
25567;SDS011;13455;51.480;7.594;2023-04-12T06:28:49;2.53;;;0.82;;
25567;SDS011;13455;51.480;7.594;2023-04-12T06:31:15;4.03;;;1.00;;
25567;SDS011;13455;51.480;7.594;2023-04-12T06:33:41;2.50;;;0.75;;
25567;SDS011;13455;51.480;7.594;2023-04-12T06:36:08;2.67;;;0.60;;
25567;SDS011;13455;51.480;7.594;2023-04-12T06:38:35;1.88;;;0.65;;
25567;SDS011;13455;51.480;7.594;2023-04-12T06:41:01;1.63;;;0.70;;
25567;SDS011;13455;51.480;7.594;2023-04-12T06:43:27;2.60;;;0.80;;
25567;SDS011;13455;51.480;7.594;2023-04-12T06:45:53;1.48;;;0.50;;
25567;SDS011;13455;51.480;7.594;2023-04-12T06:48:20;2.75;;;0.60;;
25567;SDS011;13455;51.480;7.594;2023-04-12T06:50:46;1.50;;;0.60;;
25567;SDS011;13455;51.480;7.594;2023-04-12T06:53:12;1.67;;;0.70;;
25567;SDS011;13455;51.480;7.594;2023-04-12T06:55:38;2.13;;;0.60;;
25567;SDS011;13455;51.480;7.594;2023-04-12T06:58:04;1.60;;;0.60;;
25567;SDS011;13455;51.480;7.594;2023-04-12T07:00:29;1.40;;;0.60;;
25567;SDS011;13455;51.480;7.594;2023-04-12T07:02:55;0.95;;;0.50;;
25567;SDS011;13455;51.480;7.594;2023-04-12T07:05:22;1.20;;;0.40;;
25567;SDS011;13455;51.480;7.594;2023-04-12T07:07:48;0.93;;;0.40;;
25567;SDS011;13455;51.480;7.594;2023-04-12T07:10:14;2.10;;;0.50;;
25567;SDS011;13455;51.480;7.594;2023-04-12T07:12:40;1.42;;;0.50;;
25567;SDS011;13455;51.480;7.594;2023-04-12T07:15:06;1.83;;;0.50;;
25567;SDS011;13455;51.480;7.594;2023-04-12T07:17:33;2.00;;;0.40;;
25567;SDS011;13455;51.480;7.594;2023-04-12T07:19:59;1.10;;;0.50;;
25567;SDS011;13455;51.480;7.594;2023-04-12T07:22:25;1.25;;;0.47;;
25567;SDS011;13455;51.480;7.594;2023-04-12T07:24:51;1.08;;;0.50;;
25567;SDS011;13455;51.480;7.594;2023-04-12T07:27:17;2.38;;;0.60;;
25567;SDS011;13455;51.480;7.594;2023-04-12T07:29:43;1.40;;;0.50;;
25567;SDS011;13455;51.480;7.594;2023-04-12T07:32:09;1.38;;;0.50;;
25567;SDS011;13455;51.480;7.594;2023-04-12T07:34:36;1.98;;;0.50;;
25567;SDS011;13455;51.480;7.594;2023-04-12T07:37:03;2.03;;;0.60;;
25567;SDS011;13455;51.480;7.594;2023-04-12T07:39:29;2.80;;;0.60;;
25567;SDS011;13455;51.480;7.594;2023-04-12T07:41:55;3.08;;;0.60;;
25567;SDS011;13455;51.480;7.594;2023-04-12T07:44:21;1.70;;;0.60;;
25567;SDS011;13455;51.480;7.594;2023-04-12T07:46:47;1.43;;;0.43;;
25567;SDS011;13455;51.480;7.594;2023-04-12T07:49:12;1.00;;;0.40;;
25567;SDS011;13455;51.480;7.594;2023-04-12T07:51:38;1.20;;;0.40;;
25567;SDS011;13455;51.480;7.594;2023-04-12T07:54:04;1.17;;;0.40;;
25567;SDS011;13455;51.480;7.594;2023-04-12T07:56:33;1.50;;;0.40;;
25567;SDS011;13455;51.480;7.594;2023-04-12T07:59:00;1.50;;;0.40;;
25567;SDS011;13455;51.480;7.594;2023-04-12T08:01:25;2.10;;;0.50;;
25567;SDS011;13455;51.480;7.594;2023-04-12T08:03:51;1.75;;;0.30;;
25567;SDS011;13455;51.480;7.594;2023-04-12T08:06:17;1.63;;;0.40;;
25567;SDS011;13455;51.480;7.594;2023-04-12T08:08:42;0.95;;;0.40;;
25567;SDS011;13455;51.480;7.594;2023-04-12T08:11:08;1.92;;;0.40;;
25567;SDS011;13455;51.480;7.594;2023-04-12T08:13:34;2.73;;;0.40;;
25567;SDS011;13455;51.480;7.594;2023-04-12T08:16:00;2.90;;;0.40;;
25567;SDS011;13455;51.480;7.594;2023-04-12T08:18:26;0.60;;;0.30;;
25567;SDS011;13455;51.480;7.594;2023-04-12T08:20:53;1.00;;;0.40;;
25567;SDS011;13455;51.480;7.594;2023-04-12T08:23:22;1.60;;;0.40;;
25567;SDS011;13455;51.480;7.594;2023-04-12T08:25:48;0.75;;;0.38;;
25567;SDS011;13455;51.480;7.594;2023-04-12T08:28:14;0.70;;;0.30;;
25567;SDS011;13455;51.480;7.594;2023-04-12T08:30:41;0.35;;;0.20;;
25567;SDS011;13455;51.480;7.594;2023-04-12T08:33:07;1.05;;;0.40;;
25567;SDS011;13455;51.480;7.594;2023-04-12T08:35:33;2.10;;;0.60;;
25567;SDS011;13455;51.480;7.594;2023-04-12T08:37:58;0.77;;;0.33;;
25567;SDS011;13455;51.480;7.594;2023-04-12T08:40:30;1.37;;;0.50;;
25567;SDS011;13455;51.480;7.594;2023-04-12T08:42:56;0.93;;;0.40;;
25567;SDS011;13455;51.480;7.594;2023-04-12T08:45:26;2.00;;;0.40;;
25567;SDS011;13455;51.480;7.594;2023-04-12T08:47:54;1.63;;;0.40;;
25567;SDS011;13455;51.480;7.594;2023-04-12T08:50:20;0.93;;;0.30;;
25567;SDS011;13455;51.480;7.594;2023-04-12T08:52:46;1.38;;;0.32;;
25567;SDS011;13455;51.480;7.594;2023-04-12T08:55:14;1.63;;;0.40;;
25567;SDS011;13455;51.480;7.594;2023-04-12T08:57:40;0.67;;;0.30;;
25567;SDS011;13455;51.480;7.594;2023-04-12T09:00:06;1.08;;;0.38;;
25567;SDS011;13455;51.480;7.594;2023-04-12T09:02:36;0.50;;;0.22;;
25567;SDS011;13455;51.480;7.594;2023-04-12T09:05:03;1.10;;;0.20;;
25567;SDS011;13455;51.480;7.594;2023-04-12T09:07:30;0.70;;;0.30;;
25567;SDS011;13455;51.480;7.594;2023-04-12T09:09:56;1.98;;;0.20;;
25567;SDS011;13455;51.480;7.594;2023-04-12T09:12:22;0.75;;;0.30;;
25567;SDS011;13455;51.480;7.594;2023-04-12T09:15:10;1.50;;;0.40;;
25567;SDS011;13455;51.480;7.594;2023-04-12T09:17:38;0.90;;;0.40;;
25567;SDS011;13455;51.480;7.594;2023-04-12T09:22:41;1.98;;;0.40;;
25567;SDS011;13455;51.480;7.594;2023-04-12T09:25:10;0.75;;;0.30;;
25567;SDS011;13455;51.480;7.594;2023-04-12T09:27:50;1.20;;;0.30;;
25567;SDS011;13455;51.480;7.594;2023-04-12T09:30:17;1.60;;;0.40;;
25567;SDS011;13455;51.480;7.594;2023-04-12T09:32:44;0.73;;;0.40;;
25567;SDS011;13455;51.480;7.594;2023-04-12T09:35:09;0.82;;;0.40;;
25567;SDS011;13455;51.480;7.594;2023-04-12T09:37:35;1.20;;;0.40;;
25567;SDS011;13455;51.480;7.594;2023-04-12T09:42:28;1.40;;;0.40;;
25567;SDS011;13455;51.480;7.594;2023-04-12T09:44:55;1.70;;;0.40;;
25567;SDS011;13455;51.480;7.594;2023-04-12T09:47:21;0.90;;;0.40;;
25567;SDS011;13455;51.480;7.594;2023-04-12T09:49:59;1.33;;;0.40;;
25567;SDS011;13455;51.480;7.594;2023-04-12T09:52:33;1.30;;;0.40;;
25567;SDS011;13455;51.480;7.594;2023-04-12T09:55:01;0.85;;;0.40;;
25567;SDS011;13455;51.480;7.594;2023-04-12T09:57:33;1.88;;;0.60;;
25567;SDS011;13455;51.480;7.594;2023-04-12T10:00:06;1.08;;;0.40;;
25567;SDS011;13455;51.480;7.594;2023-04-12T10:02:48;1.42;;;0.40;;
25567;SDS011;13455;51.480;7.594;2023-04-12T10:05:15;1.60;;;0.40;;
25567;SDS011;13455;51.480;7.594;2023-04-12T10:07:43;1.00;;;0.30;;
25567;SDS011;13455;51.480;7.594;2023-04-12T10:10:10;1.52;;;0.50;;
25567;SDS011;13455;51.480;7.594;2023-04-12T10:12:37;0.80;;;0.40;;
25567;SDS011;13455;51.480;7.594;2023-04-12T10:15:05;0.80;;;0.40;;
25567;SDS011;13455;51.480;7.594;2023-04-12T10:17:36;1.00;;;0.40;;
25567;SDS011;13455;51.480;7.594;2023-04-12T10:20:08;1.50;;;0.50;;
25567;SDS011;13455;51.480;7.594;2023-04-12T10:22:35;0.98;;;0.30;;
25567;SDS011;13455;51.480;7.594;2023-04-12T10:25:13;0.50;;;0.30;;
25567;SDS011;13455;51.480;7.594;2023-04-12T10:27:41;1.10;;;0.55;;
25567;SDS011;13455;51.480;7.594;2023-04-12T10:30:18;1.60;;;0.50;;
25567;SDS011;13455;51.480;7.594;2023-04-12T10:32:48;2.20;;;0.40;;
25567;SDS011;13455;51.480;7.594;2023-04-12T10:38:23;1.45;;;0.50;;
25567;SDS011;13455;51.480;7.594;2023-04-12T10:43:36;1.48;;;0.40;;
25567;SDS011;13455;51.480;7.594;2023-04-12T10:46:02;1.10;;;0.40;;
25567;SDS011;13455;51.480;7.594;2023-04-12T10:48:49;2.80;;;0.63;;
25567;SDS011;13455;51.480;7.594;2023-04-12T10:59:03;1.10;;;0.50;;
25567;SDS011;13455;51.480;7.594;2023-04-12T11:01:33;2.58;;;0.55;;
25567;SDS011;13455;51.480;7.594;2023-04-12T11:09:15;1.50;;;0.60;;
25567;SDS011;13455;51.480;7.594;2023-04-12T11:11:45;1.45;;;0.60;;
25567;SDS011;13455;51.480;7.594;2023-04-12T11:14:12;2.00;;;0.57;;
25567;SDS011;13455;51.480;7.594;2023-04-12T11:19:44;1.58;;;0.45;;
25567;SDS011;13455;51.480;7.594;2023-04-12T11:22:17;1.83;;;0.47;;
25567;SDS011;13455;51.480;7.594;2023-04-12T11:24:48;0.90;;;0.50;;
25567;SDS011;13455;51.480;7.594;2023-04-12T11:27:19;0.90;;;0.40;;
25567;SDS011;13455;51.480;7.594;2023-04-12T11:29:50;0.73;;;0.40;;
25567;SDS011;13455;51.480;7.594;2023-04-12T11:32:19;0.70;;;0.30;;
25567;SDS011;13455;51.480;7.594;2023-04-12T11:34:46;1.08;;;0.30;;
25567;SDS011;13455;51.480;7.594;2023-04-12T11:37:12;1.57;;;0.47;;
25567;SDS011;13455;51.480;7.594;2023-04-12T11:39:42;1.15;;;0.47;;
25567;SDS011;13455;51.480;7.594;2023-04-12T11:42:12;1.10;;;0.40;;
25567;SDS011;13455;51.480;7.594;2023-04-12T11:44:39;2.03;;;0.60;;
25567;SDS011;13455;51.480;7.594;2023-04-12T11:47:11;1.95;;;0.80;;
25567;SDS011;13455;51.480;7.594;2023-04-12T11:49:42;1.08;;;0.63;;
25567;SDS011;13455;51.480;7.594;2023-04-12T11:52:08;1.42;;;0.70;;
25567;SDS011;13455;51.480;7.594;2023-04-12T11:54:34;1.88;;;0.80;;
25567;SDS011;13455;51.480;7.594;2023-04-12T11:57:00;2.42;;;0.90;;
25567;SDS011;13455;51.480;7.594;2023-04-12T11:59:32;1.40;;;0.60;;
25567;SDS011;13455;51.480;7.594;2023-04-12T12:01:59;2.08;;;0.65;;
25567;SDS011;13455;51.480;7.594;2023-04-12T12:04:26;1.30;;;0.50;;
25567;SDS011;13455;51.480;7.594;2023-04-12T12:06:54;2.00;;;0.60;;
25567;SDS011;13455;51.480;7.594;2023-04-12T12:09:21;1.90;;;0.60;;
25567;SDS011;13455;51.480;7.594;2023-04-12T12:11:47;1.73;;;0.60;;
25567;SDS011;13455;51.480;7.594;2023-04-12T12:14:17;0.97;;;0.60;;
25567;SDS011;13455;51.480;7.594;2023-04-12T12:19:32;2.37;;;0.57;;
25567;SDS011;13455;51.480;7.594;2023-04-12T12:24:35;1.40;;;0.70;;
25567;SDS011;13455;51.480;7.594;2023-04-12T12:27:01;1.90;;;0.98;;
25567;SDS011;13455;51.480;7.594;2023-04-12T12:29:34;2.67;;;1.20;;
25567;SDS011;13455;51.480;7.594;2023-04-12T12:32:02;3.17;;;1.52;;
25567;SDS011;13455;51.480;7.594;2023-04-12T12:34:35;2.30;;;1.60;;
25567;SDS011;13455;51.480;7.594;2023-04-12T12:37:00;2.80;;;1.60;;
25567;SDS011;13455;51.480;7.594;2023-04-12T12:39:27;3.13;;;1.73;;
25567;SDS011;13455;51.480;7.594;2023-04-12T12:41:53;4.40;;;1.90;;
25567;SDS011;13455;51.480;7.594;2023-04-12T12:44:22;3.47;;;1.80;;
25567;SDS011;13455;51.480;7.594;2023-04-12T12:46:48;2.87;;;1.87;;
25567;SDS011;13455;51.480;7.594;2023-04-12T12:49:14;3.50;;;2.10;;
25567;SDS011;13455;51.480;7.594;2023-04-12T12:51:41;2.88;;;2.22;;
25567;SDS011;13455;51.480;7.594;2023-04-12T12:54:06;3.20;;;2.40;;
25567;SDS011;13455;51.480;7.594;2023-04-12T12:56:32;3.35;;;2.50;;
25567;SDS011;13455;51.480;7.594;2023-04-12T12:58:59;4.67;;;2.40;;
25567;SDS011;13455;51.480;7.594;2023-04-12T13:01:25;4.03;;;2.50;;
25567;SDS011;13455;51.480;7.594;2023-04-12T13:03:54;3.60;;;2.50;;
25567;SDS011;13455;51.480;7.594;2023-04-12T13:06:20;4.22;;;2.60;;
25567;SDS011;13455;51.480;7.594;2023-04-12T13:08:47;4.07;;;2.80;;
25567;SDS011;13455;51.480;7.594;2023-04-12T13:11:12;5.00;;;2.63;;
25567;SDS011;13455;51.480;7.594;2023-04-12T13:13:38;4.00;;;2.40;;
25567;SDS011;13455;51.480;7.594;2023-04-12T13:16:04;3.20;;;1.92;;
25567;SDS011;13455;51.480;7.594;2023-04-12T13:18:30;3.47;;;1.67;;
25567;SDS011;13455;51.480;7.594;2023-04-12T13:20:56;2.90;;;1.55;;
25567;SDS011;13455;51.480;7.594;2023-04-12T13:23:22;3.00;;;1.70;;
25567;SDS011;13455;51.480;7.594;2023-04-12T13:25:47;3.13;;;1.50;;
25567;SDS011;13455;51.480;7.594;2023-04-12T13:28:13;2.60;;;1.50;;
25567;SDS011;13455;51.480;7.594;2023-04-12T13:30:40;3.28;;;1.70;;
25567;SDS011;13455;51.480;7.594;2023-04-12T13:33:07;3.50;;;1.73;;
25567;SDS011;13455;51.480;7.594;2023-04-12T13:35:33;3.40;;;1.70;;
25567;SDS011;13455;51.480;7.594;2023-04-12T13:37:59;4.00;;;2.00;;
25567;SDS011;13455;51.480;7.594;2023-04-12T13:40:25;5.50;;;1.50;;
25567;SDS011;13455;51.480;7.594;2023-04-12T13:42:51;3.40;;;1.80;;
25567;SDS011;13455;51.480;7.594;2023-04-12T13:45:16;2.85;;;1.50;;
25567;SDS011;13455;51.480;7.594;2023-04-12T13:47:42;3.83;;;1.60;;
25567;SDS011;13455;51.480;7.594;2023-04-12T13:50:08;3.83;;;1.80;;
25567;SDS011;13455;51.480;7.594;2023-04-12T13:52:34;4.10;;;1.77;;
25567;SDS011;13455;51.480;7.594;2023-04-12T13:55:00;2.45;;;1.33;;
25567;SDS011;13455;51.480;7.594;2023-04-12T13:57:25;3.95;;;1.38;;
25567;SDS011;13455;51.480;7.594;2023-04-12T13:59:51;3.35;;;1.30;;
25567;SDS011;13455;51.480;7.594;2023-04-12T14:02:17;3.43;;;1.37;;
25567;SDS011;13455;51.480;7.594;2023-04-12T14:04:49;2.80;;;1.20;;
25567;SDS011;13455;51.480;7.594;2023-04-12T14:07:16;3.63;;;1.50;;
25567;SDS011;13455;51.480;7.594;2023-04-12T14:09:42;4.82;;;1.25;;
25567;SDS011;13455;51.480;7.594;2023-04-12T14:12:08;5.20;;;1.48;;
25567;SDS011;13455;51.480;7.594;2023-04-12T14:14:33;6.40;;;1.90;;
25567;SDS011;13455;51.480;7.594;2023-04-12T14:16:59;5.53;;;1.80;;
25567;SDS011;13455;51.480;7.594;2023-04-12T14:19:26;5.10;;;1.50;;
25567;SDS011;13455;51.480;7.594;2023-04-12T14:21:52;4.13;;;1.50;;
25567;SDS011;13455;51.480;7.594;2023-04-12T14:24:18;6.80;;;1.60;;
25567;SDS011;13455;51.480;7.594;2023-04-12T14:26:45;4.43;;;1.60;;
25567;SDS011;13455;51.480;7.594;2023-04-12T14:29:12;3.83;;;1.50;;
25567;SDS011;13455;51.480;7.594;2023-04-12T14:31:38;5.15;;;1.60;;
25567;SDS011;13455;51.480;7.594;2023-04-12T14:34:04;6.10;;;1.60;;
25567;SDS011;13455;51.480;7.594;2023-04-12T14:36:30;6.35;;;1.67;;
25567;SDS011;13455;51.480;7.594;2023-04-12T14:38:57;5.90;;;1.70;;
25567;SDS011;13455;51.480;7.594;2023-04-12T14:41:23;7.05;;;1.88;;
25567;SDS011;13455;51.480;7.594;2023-04-12T14:43:49;8.65;;;1.50;;
25567;SDS011;13455;51.480;7.594;2023-04-12T14:46:15;8.45;;;1.95;;
25567;SDS011;13455;51.480;7.594;2023-04-12T14:48:41;7.07;;;1.65;;
25567;SDS011;13455;51.480;7.594;2023-04-12T14:51:08;6.57;;;1.65;;
25567;SDS011;13455;51.480;7.594;2023-04-12T14:53:34;6.13;;;1.52;;
25567;SDS011;13455;51.480;7.594;2023-04-12T14:56:00;6.85;;;1.60;;
25567;SDS011;13455;51.480;7.594;2023-04-12T14:58:27;5.67;;;1.80;;
25567;SDS011;13455;51.480;7.594;2023-04-12T15:00:54;5.50;;;1.60;;
25567;SDS011;13455;51.480;7.594;2023-04-12T15:03:24;6.83;;;1.87;;
25567;SDS011;13455;51.480;7.594;2023-04-12T15:05:50;6.15;;;2.20;;
25567;SDS011;13455;51.480;7.594;2023-04-12T15:08:17;8.75;;;2.80;;
25567;SDS011;13455;51.480;7.594;2023-04-12T15:10:43;7.07;;;2.88;;
25567;SDS011;13455;51.480;7.594;2023-04-12T15:13:08;10.83;;;2.80;;
25567;SDS011;13455;51.480;7.594;2023-04-12T15:15:34;8.45;;;3.10;;
25567;SDS011;13455;51.480;7.594;2023-04-12T15:18:00;9.13;;;3.05;;
25567;SDS011;13455;51.480;7.594;2023-04-12T15:20:27;8.50;;;3.10;;
25567;SDS011;13455;51.480;7.594;2023-04-12T15:22:53;8.30;;;2.80;;
25567;SDS011;13455;51.480;7.594;2023-04-12T15:25:18;9.27;;;3.17;;
25567;SDS011;13455;51.480;7.594;2023-04-12T15:27:45;10.73;;;3.15;;
25567;SDS011;13455;51.480;7.594;2023-04-12T15:30:11;9.73;;;2.87;;
25567;SDS011;13455;51.480;7.594;2023-04-12T15:32:39;15.70;;;3.00;;
25567;SDS011;13455;51.480;7.594;2023-04-12T15:35:06;10.82;;;3.08;;
25567;SDS011;13455;51.480;7.594;2023-04-12T15:37:32;10.82;;;3.10;;